Yarnell, Arizona
Current Conditions -  °F | °C
As of 5:53 PM on Saturday 22 Nov 2014 (Local Time) from KPRC Reporting Station
Clear Clear  
Wind Chill: 51°   Ceiling: Unl
Heat Index: 51°   Visibility: 10mi
Dew Point: 17°   Wind: 10mph
Humidity: 26%   Direction: 230°SW
Pressure: 30.01"   Gusts: NA
Location:  34.22°N, 112.75°W
Report Text: KPRC 230053Z 23009KT 10SM CLR 11/M08 A3001 RMK AO2 SLP141 T01061083
Loading
Personal Weather Stations






























Interactive Weather Map New forecast layout! Learn more

10-Day Weather Forecast

Advertisements
Track Severe Weather on mobile